Time;durP1;ratioP1;P1;durP2;ratioP2;P2;SDS_P1;SDS_P2;PMS_P1;PMS_P2;Temp;Humidity;BMP_temperature;BMP_pressure;BME280_temperature;BME280_humidity;BME280_pressure;Samples;Min_cycle;Max_cycle;Signal;HPM_P1;HPM_P2
2023/09/22 00:02:03;;;;;;;8.85;3.47;;;14.00;99.90;;;;;;5055895;28;20051;-81
2023/09/22 00:04:29;;;;;;;7.47;3.60;;;14.00;99.90;;;;;;5052796;28;20141;-82
2023/09/22 00:06:55;;;;;;;8.57;4.70;;;13.90;99.90;;;;;;5058633;28;20086;-82
2023/09/22 00:09:21;;;;;;;9.57;5.25;;;14.00;99.90;;;;;;5035205;28;20037;-82
2023/09/22 00:11:47;;;;;;;10.82;7.55;;;14.00;99.90;;;;;;5039181;28;20040;-82
2023/09/22 00:14:16;;;;;;;14.38;9.68;;;14.00;99.90;;;;;;5054833;28;20041;-82
2023/09/22 00:16:42;;;;;;;24.75;16.60;;;14.00;99.90;;;;;;5058695;28;20045;-82
2023/09/22 00:19:08;;;;;;;34.38;22.35;;;14.00;99.90;;;;;;5059294;28;20041;-80
2023/09/22 00:21:34;;;;;;;34.42;23.45;;;13.90;99.90;;;;;;5059329;28;20047;-83
2023/09/22 00:24:03;;;;;;;43.47;31.88;;;13.90;99.90;;;;;;5060109;28;20092;-82
2023/09/22 00:26:29;;;;;;;50.55;35.08;;;14.00;99.90;;;;;;5052024;28;20037;-81
2023/09/22 00:29:00;;;;;;;54.83;37.30;;;13.90;99.90;;;;;;5060341;28;20514;-82
2023/09/22 00:31:26;;;;;;;43.80;32.35;;;13.90;99.90;;;;;;5042187;28;20045;-82
2023/09/22 00:33:52;;;;;;;33.47;23.25;;;13.90;99.90;;;;;;5058754;28;20057;-82
2023/09/22 00:36:18;;;;;;;26.85;18.73;;;13.90;99.90;;;;;;5057312;28;20059;-81
2023/09/22 00:38:44;;;;;;;28.35;18.40;;;13.90;99.90;;;;;;5065242;28;20037;-81
2023/09/22 00:41:12;;;;;;;22.38;14.57;;;13.90;99.90;;;;;;5058840;28;20057;-81
2023/09/22 00:43:38;;;;;;;15.10;9.90;;;13.90;99.90;;;;;;5082126;28;20048;-80
2023/09/22 00:46:06;;;;;;;11.73;7.47;;;13.90;99.90;;;;;;5063307;28;20046;-81
2023/09/22 00:48:36;;;;;;;12.80;6.65;;;13.90;99.90;;;;;;5069198;28;20064;-81
2023/09/22 00:51:02;;;;;;;10.13;5.97;;;14.00;99.90;;;;;;5054683;28;20101;-80
2023/09/22 00:53:32;;;;;;;7.97;5.53;;;13.90;99.90;;;;;;5065410;28;20045;-81
2023/09/22 00:55:59;;;;;;;7.75;5.50;;;13.80;99.90;;;;;;5072560;28;20038;-79
2023/09/22 00:58:25;;;;;;;9.35;6.03;;;13.90;99.90;;;;;;5054021;28;20082;-81
2023/09/22 01:00:52;;;;;;;10.35;6.35;;;14.10;99.90;;;;;;5075133;28;20060;-82
2023/09/22 01:03:18;;;;;;;11.85;6.72;;;13.90;99.90;;;;;;5076922;28;20048;-79
2023/09/22 01:05:48;;;;;;;12.13;6.63;;;13.90;99.90;;;;;;5072021;28;20081;-80
2023/09/22 01:08:14;;;;;;;10.85;6.93;;;13.90;99.90;;;;;;5065429;28;20083;-82
2023/09/22 01:10:44;;;;;;;14.02;7.95;;;13.90;99.90;;;;;;5053992;28;20041;-82
2023/09/22 01:13:10;;;;;;;13.82;7.47;;;13.90;99.90;;;;;;5077277;28;20076;-81
2023/09/22 01:15:43;;;;;;;19.60;8.75;;;13.90;99.90;;;;;;5056442;28;20052;-82
2023/09/22 01:18:10;;;;;;;15.13;8.45;;;13.90;99.90;;;;;;5076562;28;20403;-82
2023/09/22 01:20:45;;;;;;;20.00;10.07;;;13.90;99.90;;;;;;5049227;28;20028;-82
2023/09/22 01:23:15;;;;;;;19.88;10.48;;;13.80;99.90;;;;;;5087565;28;20049;-82
2023/09/22 01:25:44;;;;;;;20.27;10.38;;;13.80;99.90;;;;;;5072261;28;20029;-81
2023/09/22 01:28:11;;;;;;;22.08;11.45;;;13.90;99.90;;;;;;5075372;28;20098;-81
2023/09/22 01:30:42;;;;;;;21.85;11.45;;;13.90;99.90;;;;;;5056630;28;20037;-82
2023/09/22 01:33:11;;;;;;;27.65;13.70;;;13.90;99.90;;;;;;5070755;28;20105;-83
2023/09/22 01:35:37;;;;;;;24.73;13.27;;;13.90;99.90;;;;;;5065210;28;20044;-83
2023/09/22 01:38:11;;;;;;;24.05;13.75;;;13.90;99.90;;;;;;5069483;28;20037;-82
2023/09/22 01:40:41;;;;;;;23.67;14.32;;;13.90;99.90;;;;;;5071757;28;20078;-83
2023/09/22 01:43:07;;;;;;;25.20;14.32;;;13.90;99.90;;;;;;5048491;28;20041;-81
2023/09/22 01:45:33;;;;;;;29.67;14.73;;;13.90;99.90;;;;;;5065983;28;20051;-80
2023/09/22 01:48:00;;;;;;;28.17;14.20;;;13.90;99.90;;;;;;5062576;28;20052;-80
2023/09/22 01:50:26;;;;;;;26.45;16.20;;;13.90;99.90;;;;;;5043400;28;20483;-79
2023/09/22 01:52:55;;;;;;;32.20;17.45;;;13.90;99.90;;;;;;5059180;28;20521;-81
2023/09/22 01:55:21;;;;;;;32.40;16.75;;;13.80;99.90;;;;;;5041443;28;20041;-81
2023/09/22 01:57:48;;;;;;;34.40;17.00;;;13.90;99.90;;;;;;5041744;28;20075;-79
2023/09/22 02:00:15;;;;;;;36.95;18.30;;;13.90;99.90;;;;;;5056481;28;20409;-80
2023/09/22 02:02:43;;;;;;;39.70;19.92;;;13.90;99.90;;;;;;5057674;28;20056;-80
2023/09/22 02:05:14;;;;;;;37.33;19.57;;;13.90;99.90;;;;;;5021796;28;20108;-81
2023/09/22 02:07:40;;;;;;;45.28;21.17;;;13.90;99.90;;;;;;5058435;28;20307;-81
2023/09/22 02:10:10;;;;;;;41.28;20.73;;;13.90;99.90;;;;;;5057264;28;20449;-81
2023/09/22 02:12:40;;;;;;;47.03;21.50;;;13.90;99.90;;;;;;5037849;28;20051;-82
2023/09/22 02:15:10;;;;;;;43.05;21.88;;;13.90;99.90;;;;;;5052250;28;20398;-78
2023/09/22 02:17:40;;;;;;;39.88;22.10;;;14.00;99.90;;;;;;5056027;28;20041;-83
2023/09/22 02:20:40;;;;;;;43.42;21.75;;;13.90;99.90;;;;;;5051461;28;20112;-80
2023/09/22 02:22:59;;;;;;;36.60;21.33;;;13.90;99.90;;;;;;5044622;28;20045;-82
2023/09/22 02:25:34;;;;;;;43.35;23.08;;;14.00;99.90;;;;;;5049738;28;20045;-80
2023/09/22 02:28:00;;;;;;;43.35;23.45;;;13.90;99.90;;;;;;5031628;28;20398;-79
2023/09/22 02:30:26;;;;;;;38.13;23.67;;;13.90;99.90;;;;;;5048556;28;20199;-80
2023/09/22 02:32:52;;;;;;;38.38;22.02;;;14.00;99.90;;;;;;5055143;28;20152;-81
2023/09/22 02:35:19;;;;;;;36.53;21.92;;;14.00;99.90;;;;;;5052266;28;20468;-82
2023/09/22 02:37:49;;;;;;;43.70;22.45;;;14.00;99.90;;;;;;5051453;28;20421;-80
2023/09/22 02:40:14;;;;;;;42.20;24.33;;;14.00;99.90;;;;;;5051374;28;20049;-81
2023/09/22 02:42:41;;;;;;;44.42;22.83;;;14.00;99.90;;;;;;5052027;28;20049;-81
2023/09/22 02:45:09;;;;;;;46.30;25.65;;;14.00;99.90;;;;;;5055864;28;20048;-79
2023/09/22 02:47:37;;;;;;;43.03;26.33;;;14.00;99.90;;;;;;5055176;28;20107;-79
2023/09/22 02:50:05;;;;;;;41.22;24.73;;;14.10;99.90;;;;;;5054699;28;20073;-81
2023/09/22 02:52:33;;;;;;;54.05;25.63;;;14.10;99.90;;;;;;5051693;28;20048;-79
2023/09/22 02:54:58;;;;;;;45.30;24.80;;;14.10;99.90;;;;;;5053134;28;20033;-79
2023/09/22 02:57:25;;;;;;;45.15;25.50;;;14.10;99.90;;;;;;5051521;28;20453;-80
2023/09/22 02:59:53;;;;;;;39.53;24.42;;;14.10;99.90;;;;;;5055019;28;20102;-78
2023/09/22 03:02:19;;;;;;;49.22;26.08;;;14.10;99.90;;;;;;5055566;28;20063;-78
2023/09/22 03:04:46;;;;;;;47.78;26.00;;;14.10;99.90;;;;;;5052545;28;20037;-79
2023/09/22 03:07:13;;;;;;;51.87;26.73;;;14.40;99.90;;;;;;5049817;28;20074;-79
2023/09/22 03:09:39;;;;;;;41.35;24.45;;;14.10;99.90;;;;;;5026475;28;20045;-79
2023/09/22 03:12:05;;;;;;;50.67;26.55;;;14.10;99.90;;;;;;5053290;28;20048;-79
2023/09/22 03:14:31;;;;;;;49.30;25.33;;;14.10;99.90;;;;;;5055304;28;20045;-79
2023/09/22 03:17:04;;;;;;;45.63;26.25;;;14.20;99.90;;;;;;5019642;28;20052;-80
2023/09/22 03:19:29;;;;;;;42.58;24.17;;;14.10;99.90;;;;;;5039151;28;20771;-78
2023/09/22 03:21:56;;;;;;;53.85;26.65;;;14.10;99.90;;;;;;5062470;28;20120;-79
2023/09/22 03:24:21;;;;;;;45.45;26.13;;;14.10;99.90;;;;;;5053955;28;20056;-79
2023/09/22 03:26:47;;;;;;;41.63;24.60;;;14.10;99.90;;;;;;5053447;28;20049;-80
2023/09/22 03:29:14;;;;;;;42.58;24.08;;;14.10;99.90;;;;;;5041366;28;20125;-79
2023/09/22 03:31:40;;;;;;;51.75;27.10;;;14.10;99.90;;;;;;5044985;28;20110;-80
2023/09/22 03:34:06;;;;;;;46.65;24.73;;;14.10;99.90;;;;;;5035401;28;20479;-78
2023/09/22 03:36:32;;;;;;;51.17;25.38;;;14.10;99.90;;;;;;5052881;28;20052;-78
2023/09/22 03:38:58;;;;;;;43.67;23.15;;;14.40;99.90;;;;;;5045759;28;20056;-78
2023/09/22 03:41:28;;;;;;;43.58;23.33;;;14.10;99.90;;;;;;5050928;28;20641;-78
2023/09/22 03:43:57;;;;;;;44.20;24.42;;;14.10;99.90;;;;;;5050211;28;20045;-78
2023/09/22 03:46:23;;;;;;;48.20;25.60;;;14.10;99.90;;;;;;5042130;28;20120;-79
2023/09/22 03:48:49;;;;;;;42.80;22.98;;;14.30;99.90;;;;;;5046976;28;20036;-79
2023/09/22 03:51:15;;;;;;;42.50;21.73;;;14.00;99.90;;;;;;5050820;28;20411;-78
2023/09/22 03:53:40;;;;;;;38.42;21.50;;;14.00;99.90;;;;;;5034654;28;20132;-78
2023/09/22 03:56:07;;;;;;;35.75;21.08;;;14.00;99.90;;;;;;5054624;28;20041;-80
2023/09/22 03:58:32;;;;;;;34.17;21.05;;;14.00;99.90;;;;;;5048616;28;20127;-79
2023/09/22 04:01:09;;;;;;;38.13;21.38;;;14.00;99.90;;;;;;5052709;28;20151;-80
2023/09/22 04:03:36;;;;;;;49.78;22.10;;;14.10;99.90;;;;;;5050964;28;20049;-79
2023/09/22 04:06:04;;;;;;;38.88;22.13;;;14.10;99.90;;;;;;5059058;28;20379;-79
2023/09/22 04:08:30;;;;;;;36.17;21.50;;;14.00;99.90;;;;;;5055454;28;20055;-80
2023/09/22 04:10:56;;;;;;;42.53;20.17;;;14.00;99.90;;;;;;5041449;28;20469;-78
2023/09/22 04:13:27;;;;;;;40.78;21.42;;;14.00;99.90;;;;;;5058209;28;20036;-80
2023/09/22 04:16:00;;;;;;;34.50;20.48;;;14.00;99.90;;;;;;5034508;28;20419;-78
2023/09/22 04:18:32;;;;;;;37.53;20.33;;;14.00;99.90;;;;;;5063105;28;20120;-80
2023/09/22 04:21:08;;;;;;;31.48;19.67;;;14.00;99.90;;;;;;5057774;28;20080;-79
2023/09/22 04:24:03;;;;;;;36.60;19.80;;;14.00;99.90;;;;;;5042706;28;20076;-81
2023/09/22 04:26:49;;;;;;;38.33;20.30;;;13.90;99.90;;;;;;5055860;28;20053;-80
2023/09/22 04:29:35;;;;;;;41.42;20.33;;;13.30;99.90;;;;;;5055743;28;20552;-79
2023/09/22 04:32:02;;;;;;;34.78;19.45;;;15.00;99.90;;;;;;5053935;28;20049;-79
2023/09/22 04:34:28;;;;;;;41.72;19.90;;;13.80;99.90;;;;;;5054046;28;20109;-79
2023/09/22 04:36:54;;;;;;;42.15;19.92;;;13.80;99.90;;;;;;5038424;28;20125;-80
2023/09/22 04:39:21;;;;;;;36.17;20.08;;;13.80;99.90;;;;;;5057257;28;20032;-79
2023/09/22 04:41:50;;;;;;;40.85;19.20;;;13.80;99.90;;;;;;5057984;28;20083;-81
2023/09/22 04:44:33;;;;;;;32.53;18.35;;;13.80;99.90;;;;;;5055393;28;20052;-79
2023/09/22 04:47:00;;;;;;;34.95;17.60;;;13.80;99.90;;;;;;5053906;28;20550;-78
2023/09/22 04:49:25;;;;;;;36.33;18.27;;;13.80;99.90;;;;;;5045930;28;20048;-78
2023/09/22 04:51:54;;;;;;;31.30;17.42;;;13.70;99.90;;;;;;5041664;28;20037;-80
2023/09/22 04:54:20;;;;;;;36.60;18.77;;;13.70;99.90;;;;;;5063102;28;20399;-79
2023/09/22 04:56:45;;;;;;;36.15;19.52;;;13.80;99.90;;;;;;5049119;28;20041;-80
2023/09/22 04:59:11;;;;;;;34.53;19.10;;;13.70;99.90;;;;;;5045373;28;20049;-78
2023/09/22 05:01:38;;;;;;;38.67;19.90;;;13.80;99.90;;;;;;5049665;28;20128;-79
2023/09/22 05:04:04;;;;;;;42.28;21.15;;;13.80;99.90;;;;;;5032352;28;20051;-79
2023/09/22 05:06:31;;;;;;;40.92;21.08;;;13.80;99.90;;;;;;5045144;28;20037;-80
2023/09/22 05:08:56;;;;;;;45.17;21.88;;;14.10;99.90;;;;;;5051597;28;20124;-80
2023/09/22 05:11:22;;;;;;;44.45;21.75;;;13.80;99.90;;;;;;5063731;28;20073;-79
2023/09/22 05:13:49;;;;;;;44.17;22.52;;;14.50;99.90;;;;;;5060682;28;20041;-81
2023/09/22 05:16:15;;;;;;;40.00;22.10;;;13.80;99.90;;;;;;5037503;28;20044;-79
2023/09/22 05:18:41;;;;;;;46.85;23.75;;;13.80;99.90;;;;;;5055811;28;20046;-79
2023/09/22 05:21:09;;;;;;;46.85;23.52;;;13.80;99.90;;;;;;5048083;28;20061;-78
2023/09/22 05:23:38;;;;;;;44.72;23.38;;;13.70;99.90;;;;;;5053169;28;20044;-78
2023/09/22 05:26:08;;;;;;;47.90;24.98;;;13.70;99.90;;;;;;5057968;28;20116;-78
2023/09/22 05:28:34;;;;;;;45.70;22.70;;;13.70;99.90;;;;;;5040289;28;20042;-78
2023/09/22 05:31:00;;;;;;;46.83;23.40;;;13.70;99.90;;;;;;5047939;28;20045;-79
2023/09/22 05:33:28;;;;;;;45.38;22.55;;;13.70;99.90;;;;;;5054068;28;20079;-78
2023/09/22 05:35:54;;;;;;;43.25;22.75;;;13.70;99.90;;;;;;5074057;28;20087;-78
2023/09/22 05:38:20;;;;;;;39.00;21.90;;;13.60;99.90;;;;;;5040049;28;20030;-78
2023/09/22 05:40:46;;;;;;;43.40;22.45;;;13.60;99.90;;;;;;5056480;28;20093;-80
2023/09/22 05:43:14;;;;;;;40.83;23.15;;;14.00;99.90;;;;;;5054597;28;20075;-80
2023/09/22 05:45:41;;;;;;;;;;;13.60;99.90;;;;;;5058784;28;20044;-78
2023/09/22 05:48:07;;;;;;;43.35;23.95;;;13.60;99.90;;;;;;5054384;28;19920;-79
2023/09/22 05:50:35;;;;;;;40.20;24.08;;;13.60;99.90;;;;;;5060224;28;20045;-79
2023/09/22 05:53:02;;;;;;;38.28;22.20;;;13.60;99.90;;;;;;5058803;28;20033;-80
2023/09/22 05:55:28;;;;;;;41.10;23.98;;;13.60;99.90;;;;;;5053649;28;20049;-77
2023/09/22 05:57:54;;;;;;;45.38;23.20;;;13.60;99.90;;;;;;5039211;28;20132;-78
2023/09/22 06:00:26;;;;;;;39.92;23.60;;;13.50;99.90;;;;;;5058151;28;20200;-79
2023/09/22 06:02:53;;;;;;;44.17;23.95;;;13.50;99.90;;;;;;5051492;28;20045;-78
2023/09/22 06:05:26;;;;;;;45.90;23.55;;;13.60;99.90;;;;;;5051975;28;20048;-79
2023/09/22 06:07:54;;;;;;;42.78;24.30;;;13.50;99.90;;;;;;5072801;28;20045;-79
2023/09/22 06:10:20;;;;;;;38.88;23.45;;;13.50;99.90;;;;;;5049502;28;20045;-81
2023/09/22 06:12:52;;;;;;;46.45;25.58;;;13.50;99.90;;;;;;5034004;28;20556;-78
2023/09/22 06:15:18;;;;;;;43.15;25.52;;;13.50;99.90;;;;;;5069913;28;20483;-78
2023/09/22 06:17:43;;;;;;;48.25;24.67;;;13.50;99.90;;;;;;5042998;28;20055;-79
2023/09/22 06:20:15;;;;;;;42.75;23.70;;;13.50;99.90;;;;;;5053654;28;20033;-80
2023/09/22 06:22:45;;;;;;;50.35;25.52;;;13.50;99.90;;;;;;5035848;28;20048;-80
2023/09/22 06:25:13;;;;;;;48.03;25.52;;;13.50;99.90;;;;;;5050113;28;20046;-79
2023/09/22 06:27:39;;;;;;;54.67;26.80;;;13.50;99.90;;;;;;5052644;28;20140;-78
2023/09/22 06:30:10;;;;;;;50.08;26.55;;;13.50;99.90;;;;;;5053741;28;20037;-79
2023/09/22 06:32:41;;;;;;;42.63;24.92;;;13.50;99.90;;;;;;5029806;28;20070;-78
2023/09/22 06:35:08;;;;;;;44.75;24.13;;;13.60;99.90;;;;;;5052949;28;20045;-80
2023/09/22 06:37:34;;;;;;;48.08;25.27;;;13.50;99.90;;;;;;5050536;28;20695;-79
2023/09/22 06:40:00;;;;;;;44.60;25.08;;;13.50;99.90;;;;;;5029286;28;20052;-78
2023/09/22 06:42:26;;;;;;;43.58;26.05;;;13.50;99.90;;;;;;5030421;28;20098;-80
2023/09/22 06:44:51;;;;;;;45.78;25.00;;;13.50;99.90;;;;;;5053797;28;20787;-78
2023/09/22 06:47:17;;;;;;;41.97;24.90;;;13.70;99.90;;;;;;5052181;28;20088;-77
2023/09/22 06:49:43;;;;;;;45.67;26.38;;;13.50;99.90;;;;;;5051261;28;20071;-77
2023/09/22 06:52:08;;;;;;;55.38;26.45;;;13.50;99.90;;;;;;5032675;28;20060;-78
2023/09/22 06:54:34;;;;;;;51.90;26.92;;;13.60;99.90;;;;;;5048829;28;20123;-79
2023/09/22 06:57:05;;;;;;;44.75;24.60;;;13.60;99.90;;;;;;5049842;28;20037;-79
2023/09/22 06:59:31;;;;;;;51.15;26.13;;;13.60;99.90;;;;;;5052395;28;20172;-79
2023/09/22 07:01:59;;;;;;;45.63;25.30;;;13.70;99.90;;;;;;5056562;28;20053;-78
2023/09/22 07:04:25;;;;;;;38.80;23.20;;;13.90;99.90;;;;;;5052477;28;20037;-80
2023/09/22 07:06:52;;;;;;;42.00;24.02;;;13.80;99.90;;;;;;5060110;28;20082;-78
2023/09/22 07:09:17;;;;;;;45.92;23.52;;;13.80;99.90;;;;;;5055150;28;20087;-78
2023/09/22 07:11:43;;;;;;;39.65;22.65;;;13.80;99.90;;;;;;5068235;28;20045;-79
2023/09/22 07:14:09;;;;;;;39.88;22.42;;;13.80;99.90;;;;;;5052322;28;20037;-80
2023/09/22 07:16:36;;;;;;;33.45;21.23;;;13.80;99.90;;;;;;5060176;28;20056;-78
2023/09/22 07:19:02;;;;;;;39.70;22.13;;;13.80;99.90;;;;;;5064164;28;20116;-78
2023/09/22 07:21:28;;;;;;;36.88;21.70;;;13.90;99.90;;;;;;5059426;28;20076;-80
2023/09/22 07:23:58;;;;;;;34.05;19.77;;;13.90;99.90;;;;;;5056184;28;20041;-80
2023/09/22 07:26:24;;;;;;;36.10;20.45;;;13.80;99.90;;;;;;5064771;28;20068;-80
2023/09/22 07:28:53;;;;;;;32.85;19.15;;;13.80;99.90;;;;;;5061669;28;20116;-79
2023/09/22 07:31:18;;;;;;;30.65;18.00;;;13.90;99.90;;;;;;5055423;28;20480;-80
2023/09/22 07:33:44;;;;;;;32.50;18.90;;;13.90;99.90;;;;;;5061856;28;20075;-79
2023/09/22 07:36:11;;;;;;;30.80;17.58;;;13.90;99.90;;;;;;5053017;28;20048;-79
2023/09/22 07:38:37;;;;;;;30.40;16.90;;;13.90;99.90;;;;;;5055874;28;20044;-80
2023/09/22 07:41:04;;;;;;;28.17;17.05;;;13.80;99.90;;;;;;5059657;28;20495;-80
2023/09/22 07:43:30;;;;;;;28.20;16.52;;;13.80;99.90;;;;;;5061628;28;20044;-81
2023/09/22 07:45:57;;;;;;;29.55;17.15;;;13.80;99.90;;;;;;5049982;28;20040;-81
2023/09/22 07:48:23;;;;;;;27.27;16.27;;;13.80;99.90;;;;;;5054267;28;20037;-83
2023/09/22 07:50:48;;;;;;;26.30;16.15;;;13.80;99.90;;;;;;5059033;28;20047;-81
2023/09/22 07:53:14;;;;;;;25.63;15.93;;;13.80;99.90;;;;;;5051266;28;20082;-79
2023/09/22 07:55:41;;;;;;;26.33;15.55;;;14.10;99.90;;;;;;5049022;28;20037;-79
2023/09/22 07:58:10;;;;;;;24.30;15.18;;;13.80;99.90;;;;;;5052432;28;20380;-80
2023/09/22 08:00:46;;;;;;;30.00;16.80;;;13.80;99.90;;;;;;5049809;28;20044;-79
2023/09/22 08:03:14;;;;;;;28.33;15.88;;;13.90;99.90;;;;;;5053044;28;20033;-79
2023/09/22 08:05:43;;;;;;;24.15;16.40;;;13.80;99.90;;;;;;5053728;28;20045;-79
2023/09/22 08:08:10;;;;;;;29.63;17.55;;;13.80;99.90;;;;;;5052439;28;20037;-80
2023/09/22 08:10:38;;;;;;;26.90;16.42;;;13.80;99.90;;;;;;5040062;28;20053;-81
2023/09/22 08:13:07;;;;;;;;;;;13.80;99.90;;;;;;5057139;28;20466;-81
2023/09/22 08:15:37;;;;;;;24.90;14.68;;;13.70;99.90;;;;;;5056417;28;19920;-80
2023/09/22 08:18:14;;;;;;;24.83;15.07;;;13.80;99.90;;;;;;5055976;28;20041;-82
2023/09/22 08:20:41;;;;;;;27.45;15.27;;;13.70;99.90;;;;;;5062908;28;20064;-81
2023/09/22 08:23:07;;;;;;;29.05;15.95;;;13.70;99.90;;;;;;5055663;28;20041;-82
2023/09/22 08:25:34;;;;;;;23.55;15.07;;;13.80;99.90;;;;;;5032324;28;20033;-81
2023/09/22 08:28:00;;;;;;;22.27;15.33;;;13.80;99.90;;;;;;5039884;28;20048;-81
2023/09/22 08:30:27;;;;;;;26.45;14.95;;;13.80;99.90;;;;;;5058893;28;20045;-80
2023/09/22 08:32:53;;;;;;;22.77;15.40;;;13.90;99.90;;;;;;5058693;28;20049;-80
2023/09/22 08:35:19;;;;;;;24.65;14.48;;;13.90;99.90;;;;;;5059578;28;20393;-80
2023/09/22 08:37:45;;;;;;;20.98;13.68;;;14.00;99.90;;;;;;5062037;28;20033;-80
2023/09/22 08:40:16;;;;;;;27.13;15.48;;;14.00;99.90;;;;;;5059715;28;20063;-81
2023/09/22 08:42:44;;;;;;;22.27;13.95;;;14.10;99.90;;;;;;5042082;28;20044;-80
2023/09/22 08:45:11;;;;;;;23.70;14.40;;;14.10;99.90;;;;;;5044840;28;20056;-81
2023/09/22 08:47:41;;;;;;;21.48;13.20;;;14.10;99.90;;;;;;5043343;28;20428;-80
2023/09/22 08:50:16;;;;;;;19.77;13.35;;;14.10;99.90;;;;;;5060987;28;20047;-80
2023/09/22 08:52:46;;;;;;;19.58;12.95;;;14.10;99.90;;;;;;5075902;28;20041;-79
2023/09/22 08:55:16;;;;;;;20.45;13.00;;;14.80;99.90;;;;;;5058292;28;20204;-80
2023/09/22 08:57:45;;;;;;;21.45;11.93;;;14.20;99.90;;;;;;5042755;28;20080;-79
2023/09/22 09:00:20;;;;;;;21.42;12.88;;;14.10;99.90;;;;;;5069803;28;20052;-79
2023/09/22 09:02:57;;;;;;;17.58;11.60;;;14.20;99.90;;;;;;5074061;28;20029;-82
2023/09/22 09:05:28;;;;;;;14.48;11.00;;;14.20;99.90;;;;;;5073122;28;20056;-79
2023/09/22 09:08:09;;;;;;;17.50;10.35;;;14.20;99.90;;;;;;5066637;28;20057;-82
2023/09/22 09:10:36;;;;;;;13.05;9.70;;;14.30;99.90;;;;;;5068788;28;20384;-82
2023/09/22 09:13:05;;;;;;;11.48;9.48;;;14.40;99.90;;;;;;5062150;28;20051;-81
2023/09/22 09:15:45;;;;;;;15.40;9.18;;;14.50;99.90;;;;;;5059083;28;20045;-80
2023/09/22 09:18:12;;;;;;;14.25;8.55;;;14.60;99.90;;;;;;5039938;28;20045;-82
2023/09/22 09:20:47;;;;;;;11.13;7.80;;;14.70;99.90;;;;;;5057469;28;20446;-79
2023/09/22 09:23:21;;;;;;;15.68;7.03;;;14.70;99.90;;;;;;5053866;28;20083;-83
2023/09/22 09:25:54;;;;;;;12.68;7.03;;;14.80;99.90;;;;;;5058236;28;20070;-80
2023/09/22 09:28:21;;;;;;;18.67;7.90;;;14.80;99.90;;;;;;5046039;28;20130;-79
2023/09/22 09:30:52;;;;;;;13.13;7.10;;;14.80;99.90;;;;;;5052869;28;20125;-79
2023/09/22 09:33:25;;;;;;;12.40;6.72;;;14.90;99.90;;;;;;5054621;28;20099;-80
2023/09/22 09:35:51;;;;;;;12.77;6.15;;;15.00;99.90;;;;;;5057476;28;20045;-82
2023/09/22 09:38:20;;;;;;;8.85;5.53;;;15.10;99.90;;;;;;5040405;28;20056;-79
2023/09/22 09:40:46;;;;;;;10.90;4.82;;;15.50;99.90;;;;;;5040811;28;20070;-81
2023/09/22 09:43:13;;;;;;;3.97;3.58;;;16.00;99.90;;;;;;5052247;28;20045;-81
2023/09/22 09:45:47;;;;;;;4.60;3.42;;;16.40;99.90;;;;;;5054959;28;20045;-81
2023/09/22 09:48:16;;;;;;;5.60;3.78;;;17.00;99.90;;;;;;5075465;28;20048;-82
2023/09/22 09:50:58;;;;;;;7.75;3.85;;;16.90;99.90;;;;;;5078604;28;20049;-80
2023/09/22 09:53:42;;;;;;;6.88;3.35;;;16.90;99.90;;;;;;5062712;28;20071;-83
2023/09/22 09:56:08;;;;;;;9.70;3.75;;;16.80;99.90;;;;;;5027195;28;20045;-81
2023/09/22 09:58:35;;;;;;;6.43;3.58;;;16.80;99.90;;;;;;5046741;28;20410;-82
2023/09/22 10:01:07;;;;;;;4.95;3.20;;;16.70;99.90;;;;;;5056942;28;20479;-83
2023/09/22 10:03:35;;;;;;;9.90;3.40;;;16.90;99.90;;;;;;5035703;28;20060;-82
2023/09/22 10:06:04;;;;;;;6.13;3.00;;;17.20;99.90;;;;;;5055084;28;20084;-81
2023/09/22 10:08:30;;;;;;;5.22;2.72;;;17.70;99.90;;;;;;5041110;28;20061;-83
2023/09/22 10:11:03;;;;;;;4.70;2.20;;;18.00;99.90;;;;;;5059567;28;20399;-82
2023/09/22 10:13:29;;;;;;;3.83;1.80;;;18.40;99.90;;;;;;5060760;28;20041;-79
2023/09/22 10:16:00;;;;;;;3.97;1.92;;;18.70;99.90;;;;;;5038239;28;20099;-82
2023/09/22 10:18:52;;;;;;;5.50;2.05;;;19.00;99.90;;;;;;5055467;28;20387;-82
2023/09/22 10:21:46;;;;;;;4.10;1.88;;;18.90;99.90;;;;;;5030916;28;20037;-80
2023/09/22 10:24:23;;;;;;;5.38;1.83;;;18.80;99.90;;;;;;5050422;28;20040;-81
2023/09/22 10:27:07;;;;;;;4.22;1.60;;;18.70;99.90;;;;;;5030400;28;20041;-82
2023/09/22 10:29:34;;;;;;;3.85;1.80;;;18.80;99.90;;;;;;5045230;28;20112;-81
2023/09/22 10:35:12;;;;;;;4.72;1.80;;;18.20;99.90;;;;;;5058535;28;20049;-82
2023/09/22 10:37:57;;;;;;;3.90;1.90;;;18.20;99.90;;;;;;5035691;28;20037;-80
2023/09/22 10:40:23;;;;;;;4.72;1.85;;;18.60;99.90;;;;;;5065623;28;20074;-82
2023/09/22 10:42:50;;;;;;;4.22;1.83;;;19.00;99.90;;;;;;5046449;28;20081;-82
2023/09/22 10:45:25;;;;;;;4.45;1.88;;;19.20;99.90;;;;;;5065615;28;20060;-81
2023/09/22 10:47:52;;;;;;;4.30;1.88;;;19.10;99.90;;;;;;5053510;28;20438;-80
2023/09/22 10:50:31;;;;;;;4.10;1.58;;;19.30;99.90;;;;;;5065263;28;20037;-80
2023/09/22 10:53:00;;;;;;;3.40;1.60;;;19.60;99.90;;;;;;5048206;28;20047;-82
2023/09/22 10:55:30;;;;;;;3.63;1.50;;;19.80;99.90;;;;;;5052135;28;20049;-80
2023/09/22 10:57:57;;;;;;;2.53;1.55;;;19.40;99.90;;;;;;5063826;28;20034;-80
2023/09/22 11:00:24;;;;;;;5.80;1.58;;;19.40;99.90;;;;;;5050220;28;20037;-82
2023/09/22 11:02:50;;;;;;;2.95;1.38;;;19.40;99.90;;;;;;5067540;28;20037;-79
2023/09/22 11:05:16;;;;;;;3.60;1.65;;;19.30;99.90;;;;;;5065214;28;20052;-80
2023/09/22 11:07:43;;;;;;;2.70;1.65;;;19.20;99.90;;;;;;5049042;28;20045;-81
2023/09/22 11:10:19;;;;;;;6.03;2.08;;;18.90;99.90;;;;;;5058276;28;20040;-82
2023/09/22 11:12:52;;;;;;;3.88;1.70;;;18.60;99.90;;;;;;5068929;28;20040;-81
2023/09/22 11:15:19;;;;;;;5.00;1.77;;;18.40;99.90;;;;;;5068495;28;20032;-80
2023/09/22 11:17:48;;;;;;;6.05;1.83;;;18.20;99.90;;;;;;5059283;28;20172;-82
2023/09/22 11:20:18;;;;;;;4.18;1.80;;;18.10;99.90;;;;;;5062596;28;20077;-83
2023/09/22 11:22:44;;;;;;;4.75;1.80;;;18.30;99.90;;;;;;5051853;28;20518;-81
2023/09/22 11:25:10;;;;;;;3.72;1.60;;;18.40;99.90;;;;;;5021762;28;20119;-81
2023/09/22 11:27:54;;;;;;;5.45;1.92;;;18.50;99.90;;;;;;5051094;28;20394;-81
2023/09/22 11:30:27;;;;;;;4.80;2.08;;;18.50;99.90;;;;;;5053091;28;20053;-81
2023/09/22 11:32:58;;;;;;;5.03;2.28;;;18.50;99.90;;;;;;5035237;28;20056;-82
2023/09/22 11:35:44;;;;;;;4.22;2.10;;;18.70;99.90;;;;;;5055150;28;20051;-82
2023/09/22 11:38:39;;;;;;;3.05;1.73;;;18.70;99.90;;;;;;5049319;28;20068;-82
2023/09/22 11:41:10;;;;;;;3.28;1.60;;;18.50;99.90;;;;;;5047861;28;20057;-83
2023/09/22 11:43:56;;;;;;;3.50;1.92;;;18.30;99.90;;;;;;5050808;28;20037;-81
2023/09/22 11:46:27;;;;;;;3.33;2.00;;;18.10;99.90;;;;;;5050782;28;20045;-81
2023/09/22 11:49:05;;;;;;;4.18;1.70;;;17.90;99.90;;;;;;5033129;28;20048;-81
2023/09/22 11:51:55;;;;;;;2.50;1.50;;;18.30;99.90;;;;;;5053751;28;20049;-81
2023/09/22 11:54:26;;;;;;;3.38;2.03;;;18.90;99.90;;;;;;5053922;28;20064;-81
2023/09/22 11:56:57;;;;;;;3.13;1.52;;;19.50;99.90;;;;;;5056094;28;20178;-81
2023/09/22 11:59:34;;;;;;;3.08;1.60;;;19.90;99.90;;;;;;5058465;28;20029;-84
2023/09/22 12:02:01;;;;;;;2.45;1.70;;;19.80;99.90;;;;;;5053028;28;20036;-82
2023/09/22 12:04:31;;;;;;;2.72;1.60;;;19.70;99.90;;;;;;5052805;28;20410;-84
2023/09/22 12:06:57;;;;;;;2.75;1.40;;;19.50;99.90;;;;;;5052848;28;20071;-82
2023/09/22 12:09:26;;;;;;;6.18;1.80;;;19.20;99.90;;;;;;5052841;28;20034;-82
2023/09/22 12:11:52;;;;;;;4.20;1.50;;;19.00;99.90;;;;;;5050200;28;20053;-81
2023/09/22 12:14:18;;;;;;;4.18;1.60;;;18.70;99.90;;;;;;5049380;28;20060;-83
2023/09/22 12:16:52;;;;;;;5.65;1.98;;;18.50;99.90;;;;;;5050007;28;20041;-85
2023/09/22 12:19:30;;;;;;;3.15;1.42;;;18.30;99.90;;;;;;5050709;28;20107;-81
2023/09/22 12:21:59;;;;;;;3.65;1.67;;;18.10;99.90;;;;;;5047521;28;20033;-84
2023/09/22 12:24:33;;;;;;;4.47;1.75;;;17.90;99.90;;;;;;5044372;28;20056;-83
2023/09/22 12:27:12;;;;;;;3.28;1.88;;;17.90;99.90;;;;;;5052884;28;20033;-84
2023/09/22 12:29:46;;;;;;;3.60;2.17;;;17.60;99.90;;;;;;5055188;28;20060;-82
2023/09/22 12:32:19;;;;;;;;;;;17.40;99.90;;;;;;5041010;28;20080;-85
2023/09/22 12:34:50;;;;;;;2.92;1.85;;;17.30;99.90;;;;;;5048347;28;19948;-82
2023/09/22 12:37:19;;;;;;;3.05;1.83;;;17.40;99.90;;;;;;5064703;28;20041;-83
2023/09/22 12:39:50;;;;;;;4.32;1.90;;;17.50;99.90;;;;;;5051065;28;20041;-83
2023/09/22 12:42:24;;;;;;;2.47;1.67;;;17.60;99.90;;;;;;5069434;28;20513;-82
2023/09/22 12:44:50;;;;;;;2.80;1.90;;;17.70;99.90;;;;;;5051270;28;20037;-81
2023/09/22 12:47:16;;;;;;;2.13;1.55;;;17.90;99.90;;;;;;5059832;28;20032;-82